sensor_id;sensor_type;location;lat;lon;timestamp;P1;durP1;ratioP1;P2;durP2;ratioP2
37231;SDS011;23125;48.156;15.954;2023-06-24T00:00:09;1.95;;;0.73;;
37231;SDS011;23125;48.156;15.954;2023-06-24T00:02:37;1.52;;;0.80;;
37231;SDS011;23125;48.156;15.954;2023-06-24T00:05:03;1.20;;;0.55;;
37231;SDS011;23125;48.156;15.954;2023-06-24T00:07:31;1.27;;;0.38;;
37231;SDS011;23125;48.156;15.954;2023-06-24T00:10:01;2.00;;;0.70;;
37231;SDS011;23125;48.156;15.954;2023-06-24T00:12:28;2.08;;;1.15;;
37231;SDS011;23125;48.156;15.954;2023-06-24T00:14:54;1.45;;;0.85;;
37231;SDS011;23125;48.156;15.954;2023-06-24T00:17:20;1.55;;;1.00;;
37231;SDS011;23125;48.156;15.954;2023-06-24T00:19:46;1.98;;;1.00;;
37231;SDS011;23125;48.156;15.954;2023-06-24T00:22:12;1.63;;;0.90;;
37231;SDS011;23125;48.156;15.954;2023-06-24T00:24:37;1.73;;;0.80;;
37231;SDS011;23125;48.156;15.954;2023-06-24T00:27:05;1.27;;;0.82;;
37231;SDS011;23125;48.156;15.954;2023-06-24T00:29:31;4.15;;;1.17;;
37231;SDS011;23125;48.156;15.954;2023-06-24T00:31:57;2.30;;;0.95;;
37231;SDS011;23125;48.156;15.954;2023-06-24T00:34:23;1.63;;;1.00;;
37231;SDS011;23125;48.156;15.954;2023-06-24T00:36:48;1.35;;;0.65;;
37231;SDS011;23125;48.156;15.954;2023-06-24T00:39:15;1.38;;;0.75;;
37231;SDS011;23125;48.156;15.954;2023-06-24T00:41:41;1.67;;;0.90;;
37231;SDS011;23125;48.156;15.954;2023-06-24T00:44:08;2.00;;;1.20;;
37231;SDS011;23125;48.156;15.954;2023-06-24T00:46:34;1.40;;;0.98;;
37231;SDS011;23125;48.156;15.954;2023-06-24T00:49:01;1.83;;;1.15;;
37231;SDS011;23125;48.156;15.954;2023-06-24T00:51:28;4.20;;;1.48;;
37231;SDS011;23125;48.156;15.954;2023-06-24T00:53:59;1.33;;;0.98;;
37231;SDS011;23125;48.156;15.954;2023-06-24T00:56:26;3.60;;;1.20;;
37231;SDS011;23125;48.156;15.954;2023-06-24T00:58:57;3.08;;;1.40;;
37231;SDS011;23125;48.156;15.954;2023-06-24T01:01:28;2.85;;;1.23;;
37231;SDS011;23125;48.156;15.954;2023-06-24T01:03:59;2.20;;;1.00;;
37231;SDS011;23125;48.156;15.954;2023-06-24T01:06:26;2.22;;;1.15;;
37231;SDS011;23125;48.156;15.954;2023-06-24T01:08:57;1.80;;;1.20;;
37231;SDS011;23125;48.156;15.954;2023-06-24T01:11:29;1.80;;;1.10;;
37231;SDS011;23125;48.156;15.954;2023-06-24T01:13:55;2.92;;;1.30;;
37231;SDS011;23125;48.156;15.954;2023-06-24T01:16:45;2.33;;;1.35;;
37231;SDS011;23125;48.156;15.954;2023-06-24T01:30:18;2.05;;;1.40;;
37231;SDS011;23125;48.156;15.954;2023-06-24T01:32:59;2.17;;;1.33;;
37231;SDS011;23125;48.156;15.954;2023-06-24T01:35:31;2.72;;;1.10;;
37231;SDS011;23125;48.156;15.954;2023-06-24T01:38:01;1.65;;;1.10;;
37231;SDS011;23125;48.156;15.954;2023-06-24T01:40:43;1.42;;;1.00;;
37231;SDS011;23125;48.156;15.954;2023-06-24T01:43:10;2.15;;;1.27;;
37231;SDS011;23125;48.156;15.954;2023-06-24T01:45:41;2.50;;;1.13;;
37231;SDS011;23125;48.156;15.954;2023-06-24T01:48:14;2.63;;;1.08;;
37231;SDS011;23125;48.156;15.954;2023-06-24T01:50:44;2.30;;;1.48;;
37231;SDS011;23125;48.156;15.954;2023-06-24T01:53:19;1.95;;;1.48;;
37231;SDS011;23125;48.156;15.954;2023-06-24T01:55:47;1.77;;;1.48;;
37231;SDS011;23125;48.156;15.954;2023-06-24T01:58:15;2.55;;;1.27;;
37231;SDS011;23125;48.156;15.954;2023-06-24T02:03:10;1.92;;;1.73;;
37231;SDS011;23125;48.156;15.954;2023-06-24T02:05:37;2.40;;;1.65;;
37231;SDS011;23125;48.156;15.954;2023-06-24T02:08:05;2.45;;;2.08;;
37231;SDS011;23125;48.156;15.954;2023-06-24T02:10:35;2.42;;;1.70;;
37231;SDS011;23125;48.156;15.954;2023-06-24T02:15:30;2.85;;;1.85;;
37231;SDS011;23125;48.156;15.954;2023-06-24T02:17:57;2.40;;;1.90;;
37231;SDS011;23125;48.156;15.954;2023-06-24T02:20:23;2.90;;;2.10;;
37231;SDS011;23125;48.156;15.954;2023-06-24T02:22:55;2.50;;;1.98;;
37231;SDS011;23125;48.156;15.954;2023-06-24T02:25:23;1.90;;;1.70;;
37231;SDS011;23125;48.156;15.954;2023-06-24T02:27:51;2.97;;;2.10;;
37231;SDS011;23125;48.156;15.954;2023-06-24T02:30:21;3.22;;;2.10;;
37231;SDS011;23125;48.156;15.954;2023-06-24T02:32:48;2.33;;;2.00;;
37231;SDS011;23125;48.156;15.954;2023-06-24T02:35:14;1.98;;;1.45;;
37231;SDS011;23125;48.156;15.954;2023-06-24T02:37:40;1.60;;;1.35;;
37231;SDS011;23125;48.156;15.954;2023-06-24T02:40:07;1.80;;;1.45;;
37231;SDS011;23125;48.156;15.954;2023-06-24T02:42:34;2.58;;;1.65;;
37231;SDS011;23125;48.156;15.954;2023-06-24T02:44:59;1.40;;;1.25;;
37231;SDS011;23125;48.156;15.954;2023-06-24T02:47:26;2.15;;;1.20;;
37231;SDS011;23125;48.156;15.954;2023-06-24T02:49:53;1.50;;;1.30;;
37231;SDS011;23125;48.156;15.954;2023-06-24T02:52:23;2.55;;;1.23;;
37231;SDS011;23125;48.156;15.954;2023-06-24T02:54:54;2.08;;;1.58;;
37231;SDS011;23125;48.156;15.954;2023-06-24T02:57:21;1.25;;;1.10;;
37231;SDS011;23125;48.156;15.954;2023-06-24T02:59:49;1.35;;;1.13;;
37231;SDS011;23125;48.156;15.954;2023-06-24T03:02:15;4.82;;;1.40;;
37231;SDS011;23125;48.156;15.954;2023-06-24T03:04:42;1.35;;;0.95;;
37231;SDS011;23125;48.156;15.954;2023-06-24T03:07:09;1.10;;;0.80;;
37231;SDS011;23125;48.156;15.954;2023-06-24T03:09:35;1.13;;;0.88;;
37231;SDS011;23125;48.156;15.954;2023-06-24T03:12:02;1.08;;;0.88;;
37231;SDS011;23125;48.156;15.954;2023-06-24T03:14:28;2.05;;;0.60;;
37231;SDS011;23125;48.156;15.954;2023-06-24T03:16:54;1.10;;;0.77;;
37231;SDS011;23125;48.156;15.954;2023-06-24T03:19:20;1.08;;;0.73;;
37231;SDS011;23125;48.156;15.954;2023-06-24T03:21:45;0.98;;;0.68;;
37231;SDS011;23125;48.156;15.954;2023-06-24T03:24:11;1.52;;;0.95;;
37231;SDS011;23125;48.156;15.954;2023-06-24T03:26:37;1.40;;;0.85;;
37231;SDS011;23125;48.156;15.954;2023-06-24T03:29:07;0.93;;;0.75;;
37231;SDS011;23125;48.156;15.954;2023-06-24T03:31:33;1.15;;;0.70;;
37231;SDS011;23125;48.156;15.954;2023-06-24T03:33:59;1.67;;;0.70;;
37231;SDS011;23125;48.156;15.954;2023-06-24T03:36:24;1.75;;;0.80;;
37231;SDS011;23125;48.156;15.954;2023-06-24T03:38:50;1.02;;;0.68;;
37231;SDS011;23125;48.156;15.954;2023-06-24T03:41:16;1.33;;;0.70;;
37231;SDS011;23125;48.156;15.954;2023-06-24T03:43:42;1.10;;;0.90;;
37231;SDS011;23125;48.156;15.954;2023-06-24T03:46:10;1.52;;;0.80;;
37231;SDS011;23125;48.156;15.954;2023-06-24T03:48:37;1.05;;;0.60;;
37231;SDS011;23125;48.156;15.954;2023-06-24T03:51:03;3.42;;;1.00;;
37231;SDS011;23125;48.156;15.954;2023-06-24T03:53:29;1.08;;;0.80;;
37231;SDS011;23125;48.156;15.954;2023-06-24T03:55:55;1.10;;;0.77;;
37231;SDS011;23125;48.156;15.954;2023-06-24T03:58:21;1.85;;;1.15;;
37231;SDS011;23125;48.156;15.954;2023-06-24T04:00:47;1.15;;;0.80;;
37231;SDS011;23125;48.156;15.954;2023-06-24T04:03:15;0.98;;;0.80;;
37231;SDS011;23125;48.156;15.954;2023-06-24T04:08:10;1.10;;;0.70;;
37231;SDS011;23125;48.156;15.954;2023-06-24T04:10:36;0.88;;;0.55;;
37231;SDS011;23125;48.156;15.954;2023-06-24T04:13:02;1.13;;;0.60;;
37231;SDS011;23125;48.156;15.954;2023-06-24T04:15:28;1.05;;;0.65;;
37231;SDS011;23125;48.156;15.954;2023-06-24T04:17:53;1.60;;;0.80;;
37231;SDS011;23125;48.156;15.954;2023-06-24T04:20:19;1.02;;;0.70;;
37231;SDS011;23125;48.156;15.954;2023-06-24T04:22:45;0.82;;;0.52;;
37231;SDS011;23125;48.156;15.954;2023-06-24T04:25:11;1.35;;;1.15;;
37231;SDS011;23125;48.156;15.954;2023-06-24T04:27:37;1.10;;;0.70;;
37231;SDS011;23125;48.156;15.954;2023-06-24T04:30:03;0.80;;;0.55;;
37231;SDS011;23125;48.156;15.954;2023-06-24T04:32:29;2.47;;;0.70;;
37231;SDS011;23125;48.156;15.954;2023-06-24T04:34:55;0.80;;;0.60;;
37231;SDS011;23125;48.156;15.954;2023-06-24T04:37:23;0.80;;;0.57;;
37231;SDS011;23125;48.156;15.954;2023-06-24T04:39:49;1.58;;;0.65;;
37231;SDS011;23125;48.156;15.954;2023-06-24T04:42:15;1.20;;;0.80;;
37231;SDS011;23125;48.156;15.954;2023-06-24T04:44:40;1.02;;;0.65;;
37231;SDS011;23125;48.156;15.954;2023-06-24T04:47:06;1.30;;;0.70;;
37231;SDS011;23125;48.156;15.954;2023-06-24T04:49:32;1.95;;;0.60;;
37231;SDS011;23125;48.156;15.954;2023-06-24T04:52:01;0.70;;;0.50;;
37231;SDS011;23125;48.156;15.954;2023-06-24T04:54:28;1.30;;;0.70;;
37231;SDS011;23125;48.156;15.954;2023-06-24T04:56:53;0.90;;;0.63;;
37231;SDS011;23125;48.156;15.954;2023-06-24T04:59:23;0.95;;;0.70;;
37231;SDS011;23125;48.156;15.954;2023-06-24T05:01:48;1.50;;;0.80;;
37231;SDS011;23125;48.156;15.954;2023-06-24T05:04:14;1.70;;;0.70;;
37231;SDS011;23125;48.156;15.954;2023-06-24T05:06:40;1.23;;;0.73;;
37231;SDS011;23125;48.156;15.954;2023-06-24T05:09:06;1.63;;;0.50;;
37231;SDS011;23125;48.156;15.954;2023-06-24T05:11:32;1.67;;;1.20;;
37231;SDS011;23125;48.156;15.954;2023-06-24T05:13:58;2.03;;;0.80;;
37231;SDS011;23125;48.156;15.954;2023-06-24T05:16:23;0.95;;;0.65;;
37231;SDS011;23125;48.156;15.954;2023-06-24T05:18:49;1.27;;;1.00;;
37231;SDS011;23125;48.156;15.954;2023-06-24T05:21:15;1.40;;;1.10;;
37231;SDS011;23125;48.156;15.954;2023-06-24T05:23:41;1.30;;;1.00;;
37231;SDS011;23125;48.156;15.954;2023-06-24T05:26:07;1.13;;;0.90;;
37231;SDS011;23125;48.156;15.954;2023-06-24T05:28:33;2.40;;;0.80;;
37231;SDS011;23125;48.156;15.954;2023-06-24T05:30:59;1.27;;;1.00;;
37231;SDS011;23125;48.156;15.954;2023-06-24T05:33:25;1.60;;;0.90;;
37231;SDS011;23125;48.156;15.954;2023-06-24T05:35:51;1.10;;;0.90;;
37231;SDS011;23125;48.156;15.954;2023-06-24T05:38:17;1.23;;;0.75;;
37231;SDS011;23125;48.156;15.954;2023-06-24T05:40:42;1.30;;;0.80;;
37231;SDS011;23125;48.156;15.954;2023-06-24T05:43:08;3.17;;;1.00;;
37231;SDS011;23125;48.156;15.954;2023-06-24T05:45:36;1.05;;;0.63;;
37231;SDS011;23125;48.156;15.954;2023-06-24T05:48:02;1.00;;;0.80;;
37231;SDS011;23125;48.156;15.954;2023-06-24T05:50:28;1.90;;;0.90;;
37231;SDS011;23125;48.156;15.954;2023-06-24T05:52:54;1.30;;;0.98;;
37231;SDS011;23125;48.156;15.954;2023-06-24T05:55:20;1.00;;;0.80;;
37231;SDS011;23125;48.156;15.954;2023-06-24T05:57:46;1.63;;;0.90;;
37231;SDS011;23125;48.156;15.954;2023-06-24T06:00:11;1.40;;;0.90;;
37231;SDS011;23125;48.156;15.954;2023-06-24T06:02:38;1.10;;;0.82;;
37231;SDS011;23125;48.156;15.954;2023-06-24T06:05:04;1.60;;;1.10;;
37231;SDS011;23125;48.156;15.954;2023-06-24T06:07:30;1.00;;;0.70;;
37231;SDS011;23125;48.156;15.954;2023-06-24T06:09:56;1.90;;;0.52;;
37231;SDS011;23125;48.156;15.954;2023-06-24T06:12:22;1.23;;;0.63;;
37231;SDS011;23125;48.156;15.954;2023-06-24T06:14:48;1.30;;;0.60;;
37231;SDS011;23125;48.156;15.954;2023-06-24T06:17:14;1.58;;;0.73;;
37231;SDS011;23125;48.156;15.954;2023-06-24T06:19:40;0.73;;;0.47;;
37231;SDS011;23125;48.156;15.954;2023-06-24T06:22:07;0.65;;;0.30;;
37231;SDS011;23125;48.156;15.954;2023-06-24T06:24:33;0.60;;;0.32;;
37231;SDS011;23125;48.156;15.954;2023-06-24T06:26:59;0.47;;;0.32;;
37231;SDS011;23125;48.156;15.954;2023-06-24T06:29:25;0.85;;;0.50;;
37231;SDS011;23125;48.156;15.954;2023-06-24T06:31:51;0.50;;;0.40;;
37231;SDS011;23125;48.156;15.954;2023-06-24T06:34:18;0.90;;;0.55;;
37231;SDS011;23125;48.156;15.954;2023-06-24T06:36:45;0.80;;;0.50;;
37231;SDS011;23125;48.156;15.954;2023-06-24T06:39:10;0.85;;;0.70;;
37231;SDS011;23125;48.156;15.954;2023-06-24T06:41:36;1.35;;;0.80;;
37231;SDS011;23125;48.156;15.954;2023-06-24T06:44:02;2.33;;;0.70;;
37231;SDS011;23125;48.156;15.954;2023-06-24T06:46:28;1.10;;;0.60;;
37231;SDS011;23125;48.156;15.954;2023-06-24T06:48:54;1.02;;;0.70;;
37231;SDS011;23125;48.156;15.954;2023-06-24T06:51:20;4.35;;;0.80;;
37231;SDS011;23125;48.156;15.954;2023-06-24T06:53:46;3.08;;;0.80;;
37231;SDS011;23125;48.156;15.954;2023-06-24T06:56:45;0.90;;;0.63;;
37231;SDS011;23125;48.156;15.954;2023-06-24T06:59:05;1.98;;;0.80;;
37231;SDS011;23125;48.156;15.954;2023-06-24T07:01:30;1.65;;;0.65;;
37231;SDS011;23125;48.156;15.954;2023-06-24T07:03:57;3.25;;;0.75;;
37231;SDS011;23125;48.156;15.954;2023-06-24T07:06:22;1.63;;;0.60;;
37231;SDS011;23125;48.156;15.954;2023-06-24T07:08:48;1.98;;;0.68;;
37231;SDS011;23125;48.156;15.954;2023-06-24T07:11:14;1.02;;;0.65;;
37231;SDS011;23125;48.156;15.954;2023-06-24T07:13:40;0.90;;;0.57;;
37231;SDS011;23125;48.156;15.954;2023-06-24T07:16:06;1.70;;;0.70;;
37231;SDS011;23125;48.156;15.954;2023-06-24T07:18:32;1.05;;;0.60;;
37231;SDS011;23125;48.156;15.954;2023-06-24T07:20:59;0.93;;;0.50;;
37231;SDS011;23125;48.156;15.954;2023-06-24T07:23:27;1.58;;;0.70;;
37231;SDS011;23125;48.156;15.954;2023-06-24T07:25:52;1.17;;;0.68;;
37231;SDS011;23125;48.156;15.954;2023-06-24T07:28:18;1.50;;;0.75;;
37231;SDS011;23125;48.156;15.954;2023-06-24T07:30:44;1.23;;;0.80;;
37231;SDS011;23125;48.156;15.954;2023-06-24T07:33:10;1.70;;;0.68;;
37231;SDS011;23125;48.156;15.954;2023-06-24T07:35:36;1.58;;;0.80;;
37231;SDS011;23125;48.156;15.954;2023-06-24T07:38:02;1.27;;;0.77;;
37231;SDS011;23125;48.156;15.954;2023-06-24T07:40:27;1.52;;;1.00;;
37231;SDS011;23125;48.156;15.954;2023-06-24T07:42:53;1.25;;;0.70;;
37231;SDS011;23125;48.156;15.954;2023-06-24T07:45:19;1.30;;;0.90;;
37231;SDS011;23125;48.156;15.954;2023-06-24T07:47:45;1.58;;;0.90;;
37231;SDS011;23125;48.156;15.954;2023-06-24T07:50:11;1.45;;;0.80;;
37231;SDS011;23125;48.156;15.954;2023-06-24T07:52:37;1.65;;;0.70;;
37231;SDS011;23125;48.156;15.954;2023-06-24T07:55:04;1.50;;;0.70;;
37231;SDS011;23125;48.156;15.954;2023-06-24T07:57:30;1.10;;;0.80;;
37231;SDS011;23125;48.156;15.954;2023-06-24T07:59:56;1.10;;;0.63;;
37231;SDS011;23125;48.156;15.954;2023-06-24T08:02:22;1.70;;;0.68;;
37231;SDS011;23125;48.156;15.954;2023-06-24T08:04:49;1.75;;;0.60;;
37231;SDS011;23125;48.156;15.954;2023-06-24T08:07:15;1.35;;;0.80;;
37231;SDS011;23125;48.156;15.954;2023-06-24T08:09:41;1.60;;;0.60;;
37231;SDS011;23125;48.156;15.954;2023-06-24T08:12:08;1.35;;;0.50;;
37231;SDS011;23125;48.156;15.954;2023-06-24T08:14:34;1.23;;;0.55;;
37231;SDS011;23125;48.156;15.954;2023-06-24T08:17:00;0.75;;;0.70;;
37231;SDS011;23125;48.156;15.954;2023-06-24T08:19:27;0.60;;;0.40;;
37231;SDS011;23125;48.156;15.954;2023-06-24T08:21:52;0.98;;;0.50;;
37231;SDS011;23125;48.156;15.954;2023-06-24T08:24:18;1.27;;;0.50;;
37231;SDS011;23125;48.156;15.954;2023-06-24T08:26:44;3.80;;;1.08;;
37231;SDS011;23125;48.156;15.954;2023-06-24T08:29:10;1.75;;;0.68;;
37231;SDS011;23125;48.156;15.954;2023-06-24T08:31:36;1.33;;;0.47;;
37231;SDS011;23125;48.156;15.954;2023-06-24T08:34:02;1.15;;;0.65;;
37231;SDS011;23125;48.156;15.954;2023-06-24T08:36:28;1.38;;;0.57;;
37231;SDS011;23125;48.156;15.954;2023-06-24T08:38:57;0.90;;;0.52;;
37231;SDS011;23125;48.156;15.954;2023-06-24T08:41:23;1.10;;;0.73;;
37231;SDS011;23125;48.156;15.954;2023-06-24T08:43:55;2.35;;;0.90;;
37231;SDS011;23125;48.156;15.954;2023-06-24T08:46:21;1.30;;;1.00;;
37231;SDS011;23125;48.156;15.954;2023-06-24T08:48:53;1.65;;;0.80;;
37231;SDS011;23125;48.156;15.954;2023-06-24T08:51:24;11.80;;;1.25;;
37231;SDS011;23125;48.156;15.954;2023-06-24T08:53:54;1.50;;;1.40;;
37231;SDS011;23125;48.156;15.954;2023-06-24T08:56:22;2.42;;;1.60;;
37231;SDS011;23125;48.156;15.954;2023-06-24T08:58:48;1.60;;;1.23;;
37231;SDS011;23125;48.156;15.954;2023-06-24T09:01:14;2.00;;;1.30;;
37231;SDS011;23125;48.156;15.954;2023-06-24T09:03:40;1.60;;;1.40;;
37231;SDS011;23125;48.156;15.954;2023-06-24T09:06:06;1.77;;;1.30;;
37231;SDS011;23125;48.156;15.954;2023-06-24T09:08:32;1.60;;;1.30;;
37231;SDS011;23125;48.156;15.954;2023-06-24T09:11:00;1.45;;;1.20;;
37231;SDS011;23125;48.156;15.954;2023-06-24T09:13:36;1.90;;;1.00;;
37231;SDS011;23125;48.156;15.954;2023-06-24T09:16:12;3.05;;;1.60;;
37231;SDS011;23125;48.156;15.954;2023-06-24T09:18:39;1.75;;;1.55;;
37231;SDS011;23125;48.156;15.954;2023-06-24T09:21:05;2.45;;;1.58;;
37231;SDS011;23125;48.156;15.954;2023-06-24T09:23:35;2.08;;;1.60;;
37231;SDS011;23125;48.156;15.954;2023-06-24T09:26:05;2.15;;;1.70;;
37231;SDS011;23125;48.156;15.954;2023-06-24T09:28:36;2.08;;;1.52;;
37231;SDS011;23125;48.156;15.954;2023-06-24T09:31:05;2.55;;;1.60;;
37231;SDS011;23125;48.156;15.954;2023-06-24T09:33:35;1.92;;;1.50;;
37231;SDS011;23125;48.156;15.954;2023-06-24T09:36:03;2.13;;;1.55;;
37231;SDS011;23125;48.156;15.954;2023-06-24T09:38:36;3.00;;;1.85;;
37231;SDS011;23125;48.156;15.954;2023-06-24T09:41:04;2.53;;;1.83;;
37231;SDS011;23125;48.156;15.954;2023-06-24T09:43:37;2.03;;;1.83;;
37231;SDS011;23125;48.156;15.954;2023-06-24T09:46:07;2.10;;;1.52;;
37231;SDS011;23125;48.156;15.954;2023-06-24T09:48:34;2.60;;;2.10;;
37231;SDS011;23125;48.156;15.954;2023-06-24T09:51:01;2.50;;;2.10;;
37231;SDS011;23125;48.156;15.954;2023-06-24T09:53:34;3.17;;;2.03;;
37231;SDS011;23125;48.156;15.954;2023-06-24T09:56:04;3.88;;;2.30;;
37231;SDS011;23125;48.156;15.954;2023-06-24T09:58:35;2.50;;;2.00;;
37231;SDS011;23125;48.156;15.954;2023-06-24T10:03:32;2.60;;;1.90;;
37231;SDS011;23125;48.156;15.954;2023-06-24T10:06:03;2.55;;;1.90;;
37231;SDS011;23125;48.156;15.954;2023-06-24T10:08:31;2.10;;;1.80;;
37231;SDS011;23125;48.156;15.954;2023-06-24T10:10:58;3.03;;;2.10;;
37231;SDS011;23125;48.156;15.954;2023-06-24T10:13:25;3.17;;;1.98;;
37231;SDS011;23125;48.156;15.954;2023-06-24T10:15:51;2.72;;;2.15;;
37231;SDS011;23125;48.156;15.954;2023-06-24T10:21:03;2.88;;;2.58;;
37231;SDS011;23125;48.156;15.954;2023-06-24T10:23:31;3.95;;;2.67;;
37231;SDS011;23125;48.156;15.954;2023-06-24T10:26:25;5.88;;;3.13;;
37231;SDS011;23125;48.156;15.954;2023-06-24T10:36:54;3.47;;;2.67;;
37231;SDS011;23125;48.156;15.954;2023-06-24T10:47:34;4.38;;;3.03;;
37231;SDS011;23125;48.156;15.954;2023-06-24T10:50:02;6.65;;;4.30;;
37231;SDS011;23125;48.156;15.954;2023-06-24T10:52:28;5.63;;;4.00;;
37231;SDS011;23125;48.156;15.954;2023-06-24T10:54:56;4.80;;;3.88;;
37231;SDS011;23125;48.156;15.954;2023-06-24T10:57:25;5.03;;;4.10;;
37231;SDS011;23125;48.156;15.954;2023-06-24T10:59:53;4.95;;;4.38;;
37231;SDS011;23125;48.156;15.954;2023-06-24T11:02:21;5.80;;;4.13;;
37231;SDS011;23125;48.156;15.954;2023-06-24T11:04:52;5.85;;;4.40;;
37231;SDS011;23125;48.156;15.954;2023-06-24T11:07:20;5.38;;;3.92;;
37231;SDS011;23125;48.156;15.954;2023-06-24T11:09:53;4.93;;;4.30;;
37231;SDS011;23125;48.156;15.954;2023-06-24T11:12:24;5.18;;;4.22;;
37231;SDS011;23125;48.156;15.954;2023-06-24T11:14:51;7.30;;;5.05;;
37231;SDS011;23125;48.156;15.954;2023-06-24T11:17:20;4.97;;;3.85;;
37231;SDS011;23125;48.156;15.954;2023-06-24T11:19:46;5.30;;;4.28;;
37231;SDS011;23125;48.156;15.954;2023-06-24T11:22:12;4.68;;;4.15;;
37231;SDS011;23125;48.156;15.954;2023-06-24T11:24:38;5.82;;;4.45;;
37231;SDS011;23125;48.156;15.954;2023-06-24T11:27:05;5.93;;;4.00;;
37231;SDS011;23125;48.156;15.954;2023-06-24T11:29:31;4.88;;;3.90;;
37231;SDS011;23125;48.156;15.954;2023-06-24T11:32:01;5.88;;;4.82;;
37231;SDS011;23125;48.156;15.954;2023-06-24T11:34:28;6.82;;;4.95;;
37231;SDS011;23125;48.156;15.954;2023-06-24T11:36:55;8.18;;;5.60;;
37231;SDS011;23125;48.156;15.954;2023-06-24T11:39:21;7.60;;;5.93;;
37231;SDS011;23125;48.156;15.954;2023-06-24T11:41:52;6.53;;;5.57;;
37231;SDS011;23125;48.156;15.954;2023-06-24T11:44:23;7.75;;;6.18;;
37231;SDS011;23125;48.156;15.954;2023-06-24T11:46:49;9.07;;;6.20;;
37231;SDS011;23125;48.156;15.954;2023-06-24T11:49:15;10.00;;;6.93;;
37231;SDS011;23125;48.156;15.954;2023-06-24T11:51:48;19.55;;;8.85;;
37231;SDS011;23125;48.156;15.954;2023-06-24T11:54:19;10.30;;;7.57;;
37231;SDS011;23125;48.156;15.954;2023-06-24T11:56:51;7.50;;;5.55;;
37231;SDS011;23125;48.156;15.954;2023-06-24T11:59:26;8.77;;;6.10;;
37231;SDS011;23125;48.156;15.954;2023-06-24T12:01:58;6.50;;;5.30;;
37231;SDS011;23125;48.156;15.954;2023-06-24T12:04:31;7.57;;;5.80;;
37231;SDS011;23125;48.156;15.954;2023-06-24T12:06:58;8.18;;;5.28;;
37231;SDS011;23125;48.156;15.954;2023-06-24T12:09:24;7.30;;;5.68;;
37231;SDS011;23125;48.156;15.954;2023-06-24T12:11:51;6.95;;;5.40;;
37231;SDS011;23125;48.156;15.954;2023-06-24T12:14:17;7.28;;;5.35;;
37231;SDS011;23125;48.156;15.954;2023-06-24T12:16:44;7.32;;;5.68;;
37231;SDS011;23125;48.156;15.954;2023-06-24T12:19:10;6.78;;;5.10;;
37231;SDS011;23125;48.156;15.954;2023-06-24T12:21:37;6.45;;;5.10;;
37231;SDS011;23125;48.156;15.954;2023-06-24T12:24:03;8.65;;;6.18;;
37231;SDS011;23125;48.156;15.954;2023-06-24T12:26:30;6.43;;;5.43;;
37231;SDS011;23125;48.156;15.954;2023-06-24T12:28:56;8.30;;;5.80;;
37231;SDS011;23125;48.156;15.954;2023-06-24T12:31:23;7.20;;;5.32;;
37231;SDS011;23125;48.156;15.954;2023-06-24T12:33:50;7.30;;;5.32;;
37231;SDS011;23125;48.156;15.954;2023-06-24T12:36:18;7.78;;;5.78;;
37231;SDS011;23125;48.156;15.954;2023-06-24T12:38:45;7.15;;;5.28;;
37231;SDS011;23125;48.156;15.954;2023-06-24T12:41:11;7.90;;;6.40;;
37231;SDS011;23125;48.156;15.954;2023-06-24T12:43:36;8.52;;;5.65;;
37231;SDS011;23125;48.156;15.954;2023-06-24T12:46:02;8.82;;;6.13;;
37231;SDS011;23125;48.156;15.954;2023-06-24T12:48:28;7.25;;;5.63;;
37231;SDS011;23125;48.156;15.954;2023-06-24T12:50:54;6.65;;;5.70;;
37231;SDS011;23125;48.156;15.954;2023-06-24T12:53:20;7.32;;;5.47;;
37231;SDS011;23125;48.156;15.954;2023-06-24T12:55:46;8.07;;;5.78;;
37231;SDS011;23125;48.156;15.954;2023-06-24T12:58:13;7.07;;;5.50;;
37231;SDS011;23125;48.156;15.954;2023-06-24T13:00:43;7.43;;;5.70;;
37231;SDS011;23125;48.156;15.954;2023-06-24T13:03:09;8.70;;;5.90;;
37231;SDS011;23125;48.156;15.954;2023-06-24T13:05:35;7.47;;;5.28;;
37231;SDS011;23125;48.156;15.954;2023-06-24T13:08:01;8.20;;;6.00;;
37231;SDS011;23125;48.156;15.954;2023-06-24T13:10:27;6.20;;;5.05;;
37231;SDS011;23125;48.156;15.954;2023-06-24T13:12:53;7.00;;;5.70;;
37231;SDS011;23125;48.156;15.954;2023-06-24T13:15:19;6.95;;;5.55;;
37231;SDS011;23125;48.156;15.954;2023-06-24T13:17:45;7.88;;;5.50;;
37231;SDS011;23125;48.156;15.954;2023-06-24T13:20:11;7.05;;;5.75;;
37231;SDS011;23125;48.156;15.954;2023-06-24T13:22:37;8.30;;;5.35;;
37231;SDS011;23125;48.156;15.954;2023-06-24T13:25:03;9.52;;;6.13;;
37231;SDS011;23125;48.156;15.954;2023-06-24T13:27:29;7.28;;;5.75;;
37231;SDS011;23125;48.156;15.954;2023-06-24T13:29:55;7.30;;;5.53;;
37231;SDS011;23125;48.156;15.954;2023-06-24T13:32:21;7.47;;;5.90;;
37231;SDS011;23125;48.156;15.954;2023-06-24T13:34:48;8.13;;;5.68;;
37231;SDS011;23125;48.156;15.954;2023-06-24T13:37:14;7.80;;;5.85;;
37231;SDS011;23125;48.156;15.954;2023-06-24T13:39:40;7.68;;;5.43;;
37231;SDS011;23125;48.156;15.954;2023-06-24T13:42:06;6.72;;;5.30;;
37231;SDS011;23125;48.156;15.954;2023-06-24T13:44:32;7.53;;;5.22;;
37231;SDS011;23125;48.156;15.954;2023-06-24T13:46:58;6.60;;;5.28;;
37231;SDS011;23125;48.156;15.954;2023-06-24T13:49:24;6.00;;;5.35;;
37231;SDS011;23125;48.156;15.954;2023-06-24T13:51:50;6.90;;;5.57;;
37231;SDS011;23125;48.156;15.954;2023-06-24T13:54:16;6.45;;;5.13;;
37231;SDS011;23125;48.156;15.954;2023-06-24T13:56:42;7.18;;;5.50;;
37231;SDS011;23125;48.156;15.954;2023-06-24T13:59:08;6.45;;;4.90;;
37231;SDS011;23125;48.156;15.954;2023-06-24T14:01:35;6.45;;;5.10;;
37231;SDS011;23125;48.156;15.954;2023-06-24T14:04:01;9.70;;;5.95;;
37231;SDS011;23125;48.156;15.954;2023-06-24T14:06:27;7.15;;;5.80;;
37231;SDS011;23125;48.156;15.954;2023-06-24T14:08:53;7.20;;;5.57;;
37231;SDS011;23125;48.156;15.954;2023-06-24T14:11:19;6.35;;;5.53;;
37231;SDS011;23125;48.156;15.954;2023-06-24T14:13:46;6.88;;;5.55;;
37231;SDS011;23125;48.156;15.954;2023-06-24T14:16:12;7.15;;;5.72;;
37231;SDS011;23125;48.156;15.954;2023-06-24T14:18:38;7.90;;;5.93;;
37231;SDS011;23125;48.156;15.954;2023-06-24T14:21:04;6.85;;;5.28;;
37231;SDS011;23125;48.156;15.954;2023-06-24T14:23:31;8.00;;;5.65;;
37231;SDS011;23125;48.156;15.954;2023-06-24T14:25:58;6.82;;;5.20;;
37231;SDS011;23125;48.156;15.954;2023-06-24T14:28:27;8.60;;;5.45;;
37231;SDS011;23125;48.156;15.954;2023-06-24T14:30:53;6.32;;;5.22;;
37231;SDS011;23125;48.156;15.954;2023-06-24T14:33:19;7.05;;;4.85;;
37231;SDS011;23125;48.156;15.954;2023-06-24T14:35:45;7.40;;;5.40;;
37231;SDS011;23125;48.156;15.954;2023-06-24T14:38:11;8.02;;;5.68;;
37231;SDS011;23125;48.156;15.954;2023-06-24T14:40:37;6.63;;;5.38;;
37231;SDS011;23125;48.156;15.954;2023-06-24T14:43:03;6.90;;;5.55;;
37231;SDS011;23125;48.156;15.954;2023-06-24T14:45:29;7.63;;;5.32;;
37231;SDS011;23125;48.156;15.954;2023-06-24T14:47:55;6.65;;;5.07;;
37231;SDS011;23125;48.156;15.954;2023-06-24T14:50:22;6.65;;;4.53;;
37231;SDS011;23125;48.156;15.954;2023-06-24T14:52:48;6.32;;;5.30;;
37231;SDS011;23125;48.156;15.954;2023-06-24T14:55:14;6.18;;;4.72;;
37231;SDS011;23125;48.156;15.954;2023-06-24T14:57:40;6.45;;;4.50;;
37231;SDS011;23125;48.156;15.954;2023-06-24T15:00:06;7.72;;;5.03;;
37231;SDS011;23125;48.156;15.954;2023-06-24T15:02:33;5.35;;;4.03;;
37231;SDS011;23125;48.156;15.954;2023-06-24T15:05:00;5.57;;;4.50;;
37231;SDS011;23125;48.156;15.954;2023-06-24T15:07:27;6.45;;;4.22;;
37231;SDS011;23125;48.156;15.954;2023-06-24T15:09:53;7.22;;;4.55;;
37231;SDS011;23125;48.156;15.954;2023-06-24T15:12:18;4.75;;;4.10;;